createdAt,value
2023-05-14T00:01:38.362Z,99351.97
2023-05-14T00:04:05.740Z,99352.19
2023-05-14T00:06:33.194Z,99355.78
2023-05-14T00:09:00.028Z,99353.28
2023-05-14T00:11:27.250Z,99350.84
2023-05-14T00:13:54.119Z,99347.41
2023-05-14T00:16:21.319Z,99359.66
2023-05-14T00:18:48.594Z,99348.44
2023-05-14T00:21:15.895Z,99349.41
2023-05-14T00:23:42.876Z,99350.44
2023-05-14T00:26:10.094Z,99347.00
2023-05-14T00:28:36.913Z,99347.06
2023-05-14T00:31:04.260Z,99344.50
2023-05-14T00:33:31.230Z,99344.53
2023-05-14T00:35:58.419Z,99341.97
2023-05-14T00:38:27.806Z,99341.13
2023-05-14T00:40:55.028Z,99340.19
2023-05-14T00:43:22.787Z,99339.34
2023-05-14T00:45:51.794Z,99336.66
2023-05-14T00:48:19.577Z,99340.13
2023-05-14T00:50:47.137Z,99336.50
2023-05-14T00:53:14.357Z,99334.69
2023-05-14T00:55:42.549Z,99334.75
2023-05-14T00:58:14.326Z,99340.09
2023-05-14T01:00:42.069Z,99336.63
2023-05-14T01:03:09.256Z,99336.63
2023-05-14T01:05:48.426Z,99335.75
2023-05-14T01:08:52.973Z,99344.47
2023-05-14T01:11:29.296Z,99336.53
2023-05-14T01:13:59.201Z,99340.00
2023-05-14T01:16:28.222Z,99330.38
2023-05-14T01:18:57.861Z,99337.34
2023-05-14T01:21:38.365Z,99336.41
2023-05-14T01:24:05.613Z,99341.63
2023-05-14T01:26:33.358Z,99336.31
2023-05-14T01:29:15.572Z,99332.94
2023-05-14T01:31:45.711Z,99335.50
2023-05-14T01:34:14.748Z,99337.31
2023-05-14T01:36:43.143Z,99331.25
2023-05-14T01:39:12.142Z,99333.03
2023-05-14T01:41:42.311Z,99330.56
2023-05-14T01:44:09.794Z,99328.88
2023-05-14T01:46:37.048Z,99333.28
2023-05-14T01:49:03.983Z,99326.41
2023-05-14T01:51:31.209Z,99328.16
2023-05-14T01:53:58.157Z,99329.19
2023-05-14T01:56:25.913Z,99332.81
2023-05-14T01:58:52.944Z,99328.56
2023-05-14T02:01:20.184Z,99335.69
2023-05-14T02:03:47.159Z,99332.28
2023-05-14T02:06:14.411Z,99328.91
2023-05-14T02:08:41.321Z,99329.00
2023-05-14T02:11:08.540Z,99328.16
2023-05-14T02:13:36.323Z,99322.16
2023-05-14T02:16:03.724Z,99324.88
2023-05-14T02:18:31.405Z,99320.63
2023-05-14T02:20:58.652Z,99316.31
2023-05-14T02:23:34.201Z,99320.69
2023-05-14T02:26:09.760Z,99319.84
2023-05-14T02:28:36.774Z,99320.75
2023-05-14T02:31:04.007Z,99322.47
2023-05-14T02:33:31.129Z,99326.78
2023-05-14T02:35:58.436Z,99324.16
2023-05-14T02:38:26.670Z,99321.53
2023-05-14T02:41:19.139Z,99318.91
2023-05-14T02:43:46.322Z,99312.84
2023-05-14T02:46:13.529Z,99313.72
2023-05-14T02:48:41.038Z,99316.31
2023-05-14T02:51:08.306Z,99314.44
2023-05-14T02:53:35.232Z,99309.94
2023-05-14T02:56:02.902Z,99310.75
2023-05-14T02:58:30.011Z,99304.50
2023-05-14T03:00:57.222Z,99301.69
2023-05-14T03:03:24.608Z,99302.38
2023-05-14T03:05:52.224Z,99297.84
2023-05-14T03:08:19.145Z,99302.91
2023-05-14T03:10:46.400Z,99298.38
2023-05-14T03:13:15.366Z,99306.00
2023-05-14T03:15:42.408Z,99306.84
2023-05-14T03:18:09.341Z,99304.13
2023-05-14T03:20:36.524Z,99314.63
2023-05-14T03:23:03.416Z,99307.56
2023-05-14T03:25:30.731Z,99312.63
2023-05-14T03:27:57.647Z,99312.53
2023-05-14T03:30:25.128Z,99306.28
2023-05-14T03:32:53.699Z,99307.81
2023-05-14T03:35:21.039Z,99300.59
2023-05-14T03:37:47.906Z,99301.06
2023-05-14T03:40:15.207Z,99302.34
2023-05-14T03:42:42.198Z,99298.34
2023-05-14T03:45:09.965Z,99295.19
2023-05-14T03:47:36.902Z,99306.06
2023-05-14T03:50:04.343Z,99308.28
2023-05-14T03:52:31.212Z,99299.75
2023-05-14T03:54:58.408Z,99304.41
2023-05-14T03:57:25.337Z,99301.28
2023-05-14T03:59:52.478Z,99299.00
2023-05-14T04:02:19.369Z,99303.50
2023-05-14T04:04:46.592Z,99301.69
2023-05-14T04:07:13.549Z,99299.88
2023-05-14T04:09:40.808Z,99300.66
2023-05-14T04:12:08.208Z,99300.69
2023-05-14T04:14:35.476Z,99301.59
2023-05-14T04:17:02.305Z,99294.50
2023-05-14T04:19:29.874Z,99299.88
2023-05-14T04:21:56.711Z,99295.41
2023-05-14T04:24:23.852Z,99297.13
2023-05-14T04:26:50.755Z,99294.00
2023-05-14T04:29:17.850Z,99296.41
2023-05-14T04:31:44.853Z,99294.41
2023-05-14T04:34:12.240Z,99292.13
2023-05-14T04:36:39.342Z,99294.09
2023-05-14T04:39:06.716Z,99291.34
2023-05-14T04:41:33.581Z,99294.03
2023-05-14T04:44:02.041Z,99294.03
2023-05-14T04:46:29.136Z,99290.31
2023-05-14T04:48:56.677Z,99292.28
2023-05-14T04:51:24.054Z,99291.28
2023-05-14T04:53:51.234Z,99291.09
2023-05-14T04:56:18.115Z,99283.53
2023-05-14T04:58:45.295Z,99271.28
2023-05-14T05:01:12.308Z,99277.44
2023-05-14T05:03:39.586Z,99272.03
2023-05-14T05:06:06.877Z,99272.16
2023-05-14T05:08:34.034Z,99273.50
2023-05-14T05:11:00.920Z,99276.97
2023-05-14T05:13:28.518Z,99274.25
2023-05-14T05:15:55.470Z,99275.81
2023-05-14T05:18:22.631Z,99274.69
2023-05-14T05:20:49.703Z,99281.03
2023-05-14T05:23:16.891Z,99275.56
2023-05-14T05:25:43.774Z,99279.94
2023-05-14T05:28:10.998Z,99285.78
2023-05-14T05:30:37.931Z,99294.22
2023-05-14T05:33:05.202Z,99292.97
2023-05-14T05:35:32.129Z,99285.06
2023-05-14T05:38:01.346Z,99275.41
2023-05-14T05:40:29.123Z,99277.47
2023-05-14T05:42:56.339Z,99280.84
2023-05-14T05:45:23.379Z,99273.97
2023-05-14T05:47:50.758Z,99279.63
2023-05-14T05:50:18.923Z,99277.38
2023-05-14T05:52:47.218Z,99278.63
2023-05-14T05:55:14.019Z,99273.91
2023-05-14T05:57:41.236Z,99273.66
2023-05-14T06:00:15.302Z,99286.53
2023-05-14T06:02:43.062Z,99280.03
2023-05-14T06:05:11.696Z,99284.69
2023-05-14T06:07:39.094Z,99274.16
2023-05-14T06:10:06.926Z,99266.63
2023-05-14T06:12:34.121Z,99271.03
2023-05-14T06:15:01.160Z,99261.66
2023-05-14T06:17:28.473Z,99265.56
2023-05-14T06:19:55.377Z,99264.81
2023-05-14T06:22:22.656Z,99262.72
2023-05-14T06:24:49.556Z,99261.78
2023-05-14T06:27:16.709Z,99250.53
2023-05-14T06:29:43.608Z,99261.81
2023-05-14T06:32:10.892Z,99257.31
2023-05-14T06:34:37.784Z,99254.25
2023-05-14T06:37:05.669Z,99250.38
2023-05-14T06:39:32.665Z,99238.91
2023-05-14T06:41:59.795Z,99239.22
2023-05-14T06:44:26.840Z,99237.78
2023-05-14T06:46:53.985Z,99230.84
2023-05-14T06:49:21.368Z,99229.56
2023-05-14T06:51:48.515Z,99229.00
2023-05-14T06:54:15.482Z,99232.81
2023-05-14T06:56:42.668Z,99226.94
2023-05-14T06:59:09.484Z,99217.66
2023-05-14T07:01:36.713Z,99218.63
2023-05-14T07:04:03.744Z,99221.75
2023-05-14T07:06:30.888Z,99226.91
2023-05-14T07:08:57.864Z,99217.88
2023-05-14T07:11:25.049Z,99216.78
2023-05-14T07:13:52.101Z,99223.63
2023-05-14T07:16:19.616Z,99220.72
2023-05-14T07:18:46.644Z,99212.75
2023-05-14T07:21:13.873Z,99217.28
2023-05-14T07:23:40.829Z,99214.63
2023-05-14T07:26:08.790Z,99213.88
2023-05-14T07:28:35.912Z,99214.31
2023-05-14T07:31:08.956Z,99198.72
2023-05-14T07:33:36.716Z,99222.19
2023-05-14T07:36:04.194Z,99212.69
2023-05-14T07:38:31.254Z,99211.59
2023-05-14T07:40:58.580Z,99202.53
2023-05-14T07:43:25.868Z,99204.53
2023-05-14T07:45:53.213Z,99197.53
2023-05-14T07:48:20.199Z,99199.31
2023-05-14T07:50:49.153Z,99192.88
2023-05-14T07:53:16.167Z,99193.97
2023-05-14T07:55:45.440Z,99189.41
2023-05-14T07:58:12.255Z,99186.56
2023-05-14T08:00:39.495Z,99189.97
2023-05-14T08:03:06.653Z,99197.19
2023-05-14T08:05:34.049Z,99198.06
2023-05-14T08:08:01.583Z,99205.97
2023-05-14T08:10:29.112Z,99215.72
2023-05-14T08:12:56.336Z,99211.41
2023-05-14T08:15:25.746Z,99196.03
2023-05-14T08:17:54.112Z,99184.53
2023-05-14T08:20:21.316Z,99189.59
2023-05-14T08:22:48.334Z,99203.34
2023-05-14T08:25:15.475Z,99190.59
2023-05-14T08:27:42.409Z,99184.16
2023-05-14T08:30:09.953Z,99184.03
2023-05-14T08:32:38.679Z,99182.34
2023-05-14T08:35:06.909Z,99176.06
2023-05-14T08:37:33.959Z,99168.38
2023-05-14T08:40:01.134Z,99164.06
2023-05-14T08:42:29.370Z,99165.31
2023-05-14T08:45:05.642Z,99168.50
2023-05-14T08:47:33.584Z,99149.75
2023-05-14T08:50:05.027Z,99146.56
2023-05-14T08:52:32.816Z,99157.41
2023-05-14T08:55:02.923Z,99154.44
2023-05-14T08:57:35.499Z,99145.75
2023-05-14T09:00:23.348Z,99151.88
2023-05-14T09:02:51.555Z,99141.06
2023-05-14T09:05:20.403Z,99148.84
2023-05-14T09:07:47.359Z,99144.91
2023-05-14T09:10:16.243Z,99136.59
2023-05-14T09:12:43.141Z,99143.53
2023-05-14T09:15:10.642Z,99151.13
2023-05-14T09:17:37.684Z,99146.94
2023-05-14T09:20:06.018Z,99135.13
2023-05-14T09:22:34.373Z,99137.59
2023-05-14T09:25:06.650Z,99110.41
2023-05-14T09:27:34.121Z,99133.50
2023-05-14T09:30:12.322Z,99126.34
2023-05-14T09:32:42.661Z,99115.25
2023-05-14T09:35:19.389Z,99107.88
2023-05-14T09:37:49.559Z,99113.81
2023-05-14T09:40:17.661Z,99113.78
2023-05-14T09:42:45.493Z,99111.63
2023-05-14T09:45:12.834Z,99110.88
2023-05-14T09:47:40.688Z,99097.59
2023-05-14T09:50:08.598Z,99090.06
2023-05-14T09:52:35.921Z,99106.31
2023-05-14T09:55:03.319Z,99107.81
2023-05-14T09:57:30.641Z,99092.34
2023-05-14T09:59:57.530Z,99087.97
2023-05-14T10:02:37.972Z,99090.22
2023-05-14T10:05:07.045Z,99084.56
2023-05-14T10:07:42.521Z,99076.97
2023-05-14T10:10:18.824Z,99077.13
2023-05-14T10:12:57.452Z,99071.63
2023-05-14T10:15:37.764Z,99063.56
2023-05-14T10:18:13.112Z,99050.78
2023-05-14T10:20:41.700Z,99054.19
2023-05-14T10:23:09.286Z,99062.28
2023-05-14T10:25:37.622Z,99046.66
2023-05-14T10:28:06.107Z,99049.53
2023-05-14T10:30:33.327Z,99044.44
2023-05-14T10:33:12.811Z,99047.34
2023-05-14T10:36:00.466Z,99037.66
2023-05-14T10:38:33.135Z,99039.38
2023-05-14T10:41:02.047Z,99031.31
2023-05-14T10:43:31.068Z,99031.16
2023-05-14T10:46:00.027Z,99032.13
2023-05-14T10:48:27.348Z,99011.13
2023-05-14T10:50:56.691Z,99012.69
2023-05-14T10:53:37.077Z,99019.81
2023-05-14T10:56:11.843Z,99011.50
2023-05-14T10:58:41.960Z,99011.03
2023-05-14T11:01:11.014Z,99003.06
2023-05-14T11:03:46.281Z,98991.91
2023-05-14T11:06:15.597Z,99006.94
2023-05-14T11:08:44.018Z,98990.91
2023-05-14T11:11:11.121Z,98998.84
2023-05-14T11:13:38.784Z,99004.31
2023-05-14T11:18:41.949Z,98981.25
2023-05-14T11:21:09.058Z,98971.63
2023-05-14T11:23:36.270Z,98981.16
2023-05-14T11:26:03.404Z,98980.44
2023-05-14T11:28:30.715Z,98976.69
2023-05-14T11:30:57.716Z,98978.75
2023-05-14T11:33:24.956Z,98960.78
2023-05-14T11:35:52.086Z,98952.03
2023-05-14T11:38:21.352Z,98947.84
2023-05-14T11:40:58.958Z,98940.06
2023-05-14T11:43:29.421Z,98931.72
2023-05-14T11:45:56.875Z,98942.56
2023-05-14T11:48:24.267Z,98928.53
2023-05-14T11:50:53.004Z,98919.28
2023-05-14T11:53:25.204Z,98935.44
2023-05-14T11:55:54.355Z,98913.84
2023-05-14T11:58:22.135Z,98928.28
2023-05-14T12:00:53.503Z,98930.25
2023-05-14T12:03:25.870Z,98917.91
2023-05-14T12:05:57.669Z,98911.09
2023-05-14T12:08:32.046Z,98911.28
2023-05-14T12:11:00.764Z,98908.66
2023-05-14T12:13:28.468Z,98902.28
2023-05-14T12:16:00.508Z,98912.34
2023-05-14T12:18:30.042Z,98907.63
2023-05-14T12:21:02.855Z,98932.44
2023-05-14T12:23:31.593Z,98898.81
2023-05-14T12:26:06.823Z,98898.81
2023-05-14T12:28:37.696Z,98896.94
2023-05-14T12:31:05.772Z,98885.88
2023-05-14T12:33:33.165Z,98904.41
2023-05-14T12:36:09.906Z,98912.97
2023-05-14T12:38:41.682Z,98874.09
2023-05-14T12:41:08.556Z,98890.53
2023-05-14T12:43:35.850Z,98876.56
2023-05-14T12:46:02.789Z,98873.94
2023-05-14T12:48:30.091Z,98857.00
2023-05-14T12:50:57.005Z,98854.66
2023-05-14T12:53:24.229Z,98849.88
2023-05-14T12:55:51.200Z,98852.88
2023-05-14T12:58:18.466Z,98859.94
2023-05-14T13:00:45.395Z,98840.88
2023-05-14T13:03:12.634Z,98835.38
2023-05-14T13:05:39.538Z,98831.13
2023-05-14T13:08:06.903Z,98828.44
2023-05-14T13:10:33.887Z,98858.03
2023-05-14T13:13:02.578Z,98828.34
2023-05-14T13:15:31.636Z,98823.56
2023-05-14T13:17:58.748Z,98824.63
2023-05-14T13:20:27.607Z,98816.41
2023-05-14T13:22:54.720Z,98814.19
2023-05-14T13:25:21.728Z,98811.13
2023-05-14T13:27:51.106Z,98800.97
2023-05-14T13:30:18.937Z,98800.03
2023-05-14T13:32:46.605Z,98819.78
2023-05-14T13:35:13.641Z,98803.09
2023-05-14T13:37:43.379Z,98808.66
2023-05-14T13:40:11.112Z,98827.78
2023-05-14T13:42:39.967Z,98795.50
2023-05-14T13:45:07.632Z,98790.06
2023-05-14T13:47:34.942Z,98797.59
2023-05-14T13:50:01.873Z,98797.16
2023-05-14T13:52:29.095Z,98781.88
2023-05-14T13:54:56.661Z,98804.22
2023-05-14T13:57:23.823Z,98788.47
2023-05-14T13:59:50.809Z,98804.38
2023-05-14T14:02:18.120Z,98812.94
2023-05-14T14:04:45.029Z,98793.75
2023-05-14T14:07:12.222Z,98795.34
2023-05-14T14:09:39.210Z,98776.34
2023-05-14T14:12:06.750Z,98774.34
2023-05-14T14:14:33.809Z,98764.31
2023-05-14T14:17:00.986Z,98768.78
2023-05-14T14:19:27.901Z,98767.63
2023-05-14T14:21:55.052Z,98762.78
2023-05-14T14:24:21.972Z,98746.28
2023-05-14T14:26:49.155Z,98756.34
2023-05-14T14:29:15.965Z,98743.63
2023-05-14T14:31:43.718Z,98746.78
2023-05-14T14:34:11.030Z,98749.34
2023-05-14T14:36:38.254Z,98742.50
2023-05-14T14:39:05.207Z,98740.84
2023-05-14T14:41:32.515Z,98734.47
2023-05-14T14:43:59.558Z,98733.94
2023-05-14T14:46:26.834Z,98730.13
2023-05-14T14:48:53.728Z,98722.63
2023-05-14T14:51:20.910Z,98704.78
2023-05-14T14:53:48.018Z,98725.66
2023-05-14T14:56:15.753Z,98725.22
2023-05-14T14:58:42.633Z,98728.19
2023-05-14T15:01:09.883Z,98707.31
2023-05-14T15:03:36.813Z,98703.06
2023-05-14T15:06:04.152Z,98704.53
2023-05-14T15:08:31.124Z,98700.69
2023-05-14T15:10:59.409Z,98693.47
2023-05-14T15:13:27.114Z,98697.53
2023-05-14T15:15:54.473Z,98695.44
2023-05-14T15:18:21.414Z,98683.34
2023-05-14T15:20:48.779Z,98694.66
2023-05-14T15:23:15.763Z,98693.56
2023-05-14T15:25:42.989Z,98687.00
2023-05-14T15:28:10.005Z,98682.22
2023-05-14T15:30:37.263Z,98683.63
2023-05-14T15:33:04.354Z,98678.03
2023-05-14T15:35:31.129Z,98667.72
2023-05-14T15:37:58.413Z,98667.47
2023-05-14T15:40:27.566Z,98661.97
2023-05-14T15:42:54.986Z,98669.47
2023-05-14T15:45:21.891Z,98665.97
2023-05-14T15:47:49.097Z,98678.56
2023-05-14T15:50:15.989Z,98668.25
2023-05-14T15:52:43.270Z,98671.13
2023-05-14T15:55:10.515Z,98659.38
2023-05-14T15:57:37.877Z,98657.09
2023-05-14T16:00:11.107Z,98653.56
2023-05-14T16:02:39.398Z,98653.00
2023-05-14T16:05:08.071Z,98658.28
2023-05-14T16:07:35.888Z,98656.72
2023-05-14T16:10:03.476Z,98655.50
2023-05-14T16:12:30.847Z,98638.84
2023-05-14T16:14:57.793Z,98652.53
2023-05-14T16:17:26.230Z,98640.22
2023-05-14T16:19:54.652Z,98641.25
2023-05-14T16:22:23.494Z,98637.31
2023-05-14T16:24:50.381Z,98630.53
2023-05-14T16:27:19.234Z,98626.16
2023-05-14T16:29:46.268Z,98631.13
2023-05-14T16:32:13.586Z,98630.69
2023-05-14T16:34:40.874Z,98631.81
2023-05-14T16:37:08.264Z,98631.25
2023-05-14T16:39:35.112Z,98629.16
2023-05-14T16:42:02.243Z,98628.44
2023-05-14T16:44:29.156Z,98635.31
2023-05-14T16:46:56.472Z,98622.34
2023-05-14T16:49:23.501Z,98616.00
2023-05-14T16:51:50.788Z,98617.97
2023-05-14T16:54:17.677Z,98620.91
2023-05-14T16:56:48.378Z,98628.66
2023-05-14T16:59:16.263Z,98623.84
2023-05-14T17:01:44.524Z,98614.28
2023-05-14T17:04:11.605Z,98614.53
2023-05-14T17:06:39.189Z,98618.63
2023-05-14T17:09:07.003Z,98620.84
2023-05-14T17:11:34.150Z,98614.81
2023-05-14T17:14:01.010Z,98599.84
2023-05-14T17:16:28.259Z,98603.81
2023-05-14T17:18:55.017Z,98604.91
2023-05-14T17:21:22.314Z,98611.66
2023-05-14T17:23:49.253Z,98605.00
2023-05-14T17:26:16.522Z,98609.53
2023-05-14T17:28:43.459Z,98594.59
2023-05-14T17:31:10.703Z,98604.16
2023-05-14T17:33:37.670Z,98590.69
2023-05-14T17:36:05.026Z,98586.47
2023-05-14T17:38:32.184Z,98596.59
2023-05-14T17:40:59.471Z,98597.84
2023-05-14T17:43:26.461Z,98590.09
2023-05-14T17:45:54.936Z,98597.53
2023-05-14T17:48:23.265Z,98589.91
2023-05-14T17:50:51.819Z,98586.66
2023-05-14T17:53:18.837Z,98594.53
2023-05-14T17:55:46.089Z,98584.94
2023-05-14T17:58:15.488Z,98594.91
2023-05-14T18:00:43.925Z,98588.38
2023-05-14T18:03:11.607Z,98587.66
2023-05-14T18:05:39.157Z,98593.41
2023-05-14T18:08:06.125Z,98590.41
2023-05-14T18:10:33.358Z,98590.41
2023-05-14T18:13:00.262Z,98590.69
2023-05-14T18:15:27.637Z,98583.91
2023-05-14T18:17:54.592Z,98583.91
2023-05-14T18:20:21.975Z,98588.53
2023-05-14T18:22:50.698Z,98595.16
2023-05-14T18:25:18.180Z,98589.31
2023-05-14T18:27:45.657Z,98586.81
2023-05-14T18:30:16.233Z,98586.22
2023-05-14T18:32:44.561Z,98579.16
2023-05-14T18:35:13.131Z,98585.59
2023-05-14T18:37:40.209Z,98581.25
2023-05-14T18:40:08.811Z,98577.22
2023-05-14T18:42:35.746Z,98577.38
2023-05-14T18:45:04.272Z,98584.78
2023-05-14T18:47:32.035Z,98585.91
2023-05-14T18:50:02.041Z,98582.78
2023-05-14T18:52:29.221Z,98577.84
2023-05-14T18:54:56.544Z,98581.72
2023-05-14T18:57:23.602Z,98574.56
2023-05-14T18:59:50.788Z,98572.88
2023-05-14T19:02:17.790Z,98572.28
2023-05-14T19:04:52.266Z,98573.22
2023-05-14T19:07:20.785Z,98576.06
2023-05-14T19:09:48.325Z,98578.97
2023-05-14T19:12:15.257Z,98580.06
2023-05-14T19:14:42.653Z,98580.94
2023-05-14T19:17:09.607Z,98589.06
2023-05-14T19:19:37.821Z,98579.94
2023-05-14T19:22:05.095Z,98577.28
2023-05-14T19:24:32.590Z,98577.00
2023-05-14T19:26:59.516Z,98580.66
2023-05-14T19:29:26.651Z,98568.44
2023-05-14T19:31:53.574Z,98579.09
2023-05-14T19:34:20.769Z,98575.72
2023-05-14T19:36:47.633Z,98575.59
2023-05-14T19:39:14.775Z,98575.72
2023-05-14T19:41:41.724Z,98578.38
2023-05-14T19:44:09.066Z,98579.22
2023-05-14T19:46:36.166Z,98576.69
2023-05-14T19:49:03.368Z,98582.16
2023-05-14T19:51:30.607Z,98580.22
2023-05-14T19:53:57.793Z,98574.00
2023-05-14T19:56:26.459Z,98579.09
2023-05-14T19:58:54.512Z,98570.25
2023-05-14T20:01:21.558Z,98568.53
2023-05-14T20:03:49.028Z,98572.22
2023-05-14T20:06:17.616Z,98575.94
2023-05-14T20:08:47.995Z,98572.44
2023-05-14T20:11:15.839Z,98570.75
2023-05-14T20:13:43.090Z,98568.94
2023-05-14T20:16:09.948Z,98565.53
2023-05-14T20:18:37.214Z,98560.09
2023-05-14T20:21:04.288Z,98557.28
2023-05-14T20:23:32.429Z,98553.75
2023-05-14T20:26:01.844Z,98557.41
2023-05-14T20:28:29.098Z,98550.50
2023-05-14T20:30:58.953Z,98558.75
2023-05-14T20:33:27.186Z,98546.41
2023-05-14T20:35:54.774Z,98542.41
2023-05-14T20:38:22.712Z,98540.13
2023-05-14T20:40:49.608Z,98529.00
2023-05-14T20:43:16.919Z,98530.31
2023-05-14T20:45:43.886Z,98517.13
2023-05-14T20:48:13.696Z,98522.84
2023-05-14T20:50:40.631Z,98521.53
2023-05-14T20:53:07.871Z,98506.91
2023-05-14T20:55:34.733Z,98512.09
2023-05-14T20:58:01.912Z,98510.81
2023-05-14T21:00:28.836Z,98515.78
2023-05-14T21:02:57.161Z,98530.44
2023-05-14T21:05:24.351Z,98519.94
2023-05-14T21:07:51.800Z,98518.84
2023-05-14T21:10:18.692Z,98518.69
2023-05-14T21:12:46.029Z,98528.53
2023-05-14T21:15:12.998Z,98522.34
2023-05-14T21:17:40.263Z,98517.59
2023-05-14T21:20:07.860Z,98502.66
2023-05-14T21:22:35.054Z,98509.75
2023-05-14T21:25:01.881Z,98507.88
2023-05-14T21:27:29.056Z,98508.16
2023-05-14T21:29:55.997Z,98519.31
2023-05-14T21:32:24.019Z,98506.72
2023-05-14T21:34:50.954Z,98505.25
2023-05-14T21:37:18.184Z,98492.88
2023-05-14T21:39:45.080Z,98481.84
2023-05-14T21:42:12.360Z,98485.66
2023-05-14T21:44:39.206Z,98487.91
2023-05-14T21:47:07.901Z,98470.47
2023-05-14T21:49:35.650Z,98472.53
2023-05-14T21:52:02.960Z,98467.31
2023-05-14T21:54:29.859Z,98458.59
2023-05-14T21:56:57.175Z,98448.31
2023-05-14T21:59:24.078Z,98459.13
2023-05-14T22:02:06.252Z,98459.59
2023-05-14T22:04:34.484Z,98455.13
2023-05-14T22:07:01.801Z,98471.09
2023-05-14T22:09:29.091Z,98473.50
2023-05-14T22:11:57.520Z,98478.50
2023-05-14T22:14:26.500Z,98480.91
2023-05-14T22:16:54.038Z,98476.91
2023-05-14T22:19:21.311Z,98471.78
2023-05-14T22:21:48.497Z,98462.13
2023-05-14T22:24:15.358Z,98463.94
2023-05-14T22:26:42.563Z,98448.13
2023-05-14T22:29:09.450Z,98435.94
2023-05-14T22:31:36.815Z,98439.44
2023-05-14T22:34:03.745Z,98431.47
2023-05-14T22:36:31.018Z,98436.78
2023-05-14T22:38:58.015Z,98417.84
2023-05-14T22:41:25.190Z,98422.00
2023-05-14T22:43:52.045Z,98425.16
2023-05-14T22:46:19.359Z,98426.63
2023-05-14T22:48:49.196Z,98426.00
2023-05-14T22:51:16.706Z,98420.88
2023-05-14T22:53:43.647Z,98415.69
2023-05-14T22:56:10.877Z,98410.50
2023-05-14T22:58:37.716Z,98415.78
2023-05-14T23:01:04.962Z,98422.91
2023-05-14T23:03:31.917Z,98425.09
2023-05-14T23:05:59.148Z,98432.41
2023-05-14T23:08:26.053Z,98421.13
2023-05-14T23:10:53.357Z,98414.06
2023-05-14T23:13:20.344Z,98412.47
2023-05-14T23:15:48.173Z,98407.16
2023-05-14T23:18:15.164Z,98398.34
2023-05-14T23:20:42.382Z,98395.69
2023-05-14T23:23:09.251Z,98388.63
2023-05-14T23:25:36.503Z,98373.56
2023-05-14T23:28:03.489Z,98366.25
2023-05-14T23:30:30.732Z,98367.88
2023-05-14T23:32:57.736Z,98366.06
2023-05-14T23:35:25.191Z,98373.56
2023-05-14T23:37:52.366Z,98374.72
2023-05-14T23:40:19.648Z,98376.63
2023-05-14T23:42:46.684Z,98363.47
2023-05-14T23:45:15.304Z,98355.66
2023-05-14T23:47:42.606Z,98350.44
2023-05-14T23:50:10.042Z,98334.47
2023-05-14T23:52:36.926Z,98331.91
2023-05-14T23:55:04.829Z,98325.00
2023-05-14T23:57:31.957Z,98326.81
2023-05-14T23:59:59.401Z,98322.53
